sensor_id;sensor_type;location;lat;lon;timestamp;pressure;altitude;pressure_sealevel;temperature;humidity
56142;BME280;42018;48.588;10.836;2022-07-09T00:00:34;97946.69;;;14.99;58.32
56142;BME280;42018;48.588;10.836;2022-07-09T00:03:19;97948.31;;;15.05;58.07
56142;BME280;42018;48.588;10.836;2022-07-09T00:06:05;97947.69;;;14.77;58.98
56142;BME280;42018;48.588;10.836;2022-07-09T00:08:50;97955.06;;;14.55;59.89
56142;BME280;42018;48.588;10.836;2022-07-09T00:11:36;97949.00;;;14.65;59.36
56142;BME280;42018;48.588;10.836;2022-07-09T00:14:22;97948.69;;;14.56;59.27
56142;BME280;42018;48.588;10.836;2022-07-09T00:17:07;97949.22;;;14.53;59.59
56142;BME280;42018;48.588;10.836;2022-07-09T00:19:53;97950.44;;;14.40;60.07
56142;BME280;42018;48.588;10.836;2022-07-09T00:22:38;97942.81;;;14.54;59.63
56142;BME280;42018;48.588;10.836;2022-07-09T00:25:24;97934.34;;;14.72;58.75
56142;BME280;42018;48.588;10.836;2022-07-09T00:28:09;97939.63;;;14.57;59.66
56142;BME280;42018;48.588;10.836;2022-07-09T00:30:54;97938.03;;;14.56;59.59
56142;BME280;42018;48.588;10.836;2022-07-09T00:33:40;97936.19;;;14.67;59.47
56142;BME280;42018;48.588;10.836;2022-07-09T00:36:25;97928.97;;;14.62;59.61
56142;BME280;42018;48.588;10.836;2022-07-09T00:39:10;97923.66;;;14.67;59.55
56142;BME280;42018;48.588;10.836;2022-07-09T00:42:22;97922.53;;;14.53;59.66
56142;BME280;42018;48.588;10.836;2022-07-09T00:45:10;97919.63;;;14.59;60.58
56142;BME280;42018;48.588;10.836;2022-07-09T00:47:55;97912.72;;;14.64;60.37
56142;BME280;42018;48.588;10.836;2022-07-09T00:50:42;97916.50;;;14.78;60.00
56142;BME280;42018;48.588;10.836;2022-07-09T00:53:28;97918.13;;;14.94;59.33
56142;BME280;42018;48.588;10.836;2022-07-09T00:56:14;97915.75;;;15.03;58.94
56142;BME280;42018;48.588;10.836;2022-07-09T00:58:59;97907.97;;;14.91;59.87
56142;BME280;42018;48.588;10.836;2022-07-09T01:01:45;97910.09;;;14.74;60.38
56142;BME280;42018;48.588;10.836;2022-07-09T01:04:30;97901.03;;;14.90;59.70
56142;BME280;42018;48.588;10.836;2022-07-09T01:07:16;97902.38;;;14.93;59.89
56142;BME280;42018;48.588;10.836;2022-07-09T01:10:03;97901.81;;;14.70;60.96
56142;BME280;42018;48.588;10.836;2022-07-09T01:12:48;97901.81;;;14.70;60.92
56142;BME280;42018;48.588;10.836;2022-07-09T01:15:34;97900.75;;;14.87;60.82
56142;BME280;42018;48.588;10.836;2022-07-09T01:18:19;97903.97;;;15.04;60.26
56142;BME280;42018;48.588;10.836;2022-07-09T01:21:05;97898.91;;;14.87;61.05
56142;BME280;42018;48.588;10.836;2022-07-09T01:23:51;97897.59;;;14.95;60.23
56142;BME280;42018;48.588;10.836;2022-07-09T01:26:36;97890.09;;;14.92;59.89
56142;BME280;42018;48.588;10.836;2022-07-09T01:29:22;97888.78;;;14.99;59.48
56142;BME280;42018;48.588;10.836;2022-07-09T01:32:07;97888.50;;;14.80;60.04
56142;BME280;42018;48.588;10.836;2022-07-09T01:34:53;97884.47;;;14.73;59.91
56142;BME280;42018;48.588;10.836;2022-07-09T01:37:38;97884.69;;;14.61;60.75
56142;BME280;42018;48.588;10.836;2022-07-09T01:40:24;97889.50;;;14.59;61.17
56142;BME280;42018;48.588;10.836;2022-07-09T01:43:09;97889.22;;;14.60;60.93
56142;BME280;42018;48.588;10.836;2022-07-09T01:45:54;97879.25;;;14.41;62.08
56142;BME280;42018;48.588;10.836;2022-07-09T01:48:40;97880.88;;;14.42;61.58
56142;BME280;42018;48.588;10.836;2022-07-09T01:51:27;97874.53;;;14.53;60.91
56142;BME280;42018;48.588;10.836;2022-07-09T01:54:12;97869.72;;;14.50;61.25
56142;BME280;42018;48.588;10.836;2022-07-09T01:56:58;97866.81;;;14.61;60.82
56142;BME280;42018;48.588;10.836;2022-07-09T01:59:43;97863.91;;;14.63;60.40
56142;BME280;42018;48.588;10.836;2022-07-09T02:02:28;97863.94;;;14.73;60.29
56142;BME280;42018;48.588;10.836;2022-07-09T02:05:15;97863.66;;;14.75;60.19
56142;BME280;42018;48.588;10.836;2022-07-09T02:08:00;97862.84;;;14.64;60.52
56142;BME280;42018;48.588;10.836;2022-07-09T02:10:46;97863.94;;;14.73;60.20
56142;BME280;42018;48.588;10.836;2022-07-09T02:13:31;97857.28;;;14.81;59.74
56142;BME280;42018;48.588;10.836;2022-07-09T02:16:16;97856.75;;;14.84;59.62
56142;BME280;42018;48.588;10.836;2022-07-09T02:19:02;97855.94;;;14.99;59.09
56142;BME280;42018;48.588;10.836;2022-07-09T02:21:47;97853.00;;;14.95;59.14
56142;BME280;42018;48.588;10.836;2022-07-09T02:24:34;97846.34;;;15.13;58.25
56142;BME280;42018;48.588;10.836;2022-07-09T02:27:19;97851.41;;;15.15;58.38
56142;BME280;42018;48.588;10.836;2022-07-09T02:30:05;97856.22;;;15.02;58.99
56142;BME280;42018;48.588;10.836;2022-07-09T02:32:51;97846.34;;;15.03;59.34
56142;BME280;42018;48.588;10.836;2022-07-09T02:35:36;97838.88;;;15.10;58.62
56142;BME280;42018;48.588;10.836;2022-07-09T02:38:21;97850.34;;;15.16;58.47
56142;BME280;42018;48.588;10.836;2022-07-09T02:41:07;97848.75;;;15.15;58.59
56142;BME280;42018;48.588;10.836;2022-07-09T02:43:52;97847.97;;;15.19;58.32
56142;BME280;42018;48.588;10.836;2022-07-09T02:46:38;97850.34;;;15.11;58.75
56142;BME280;42018;48.588;10.836;2022-07-09T02:49:23;97850.59;;;15.14;58.76
56142;BME280;42018;48.588;10.836;2022-07-09T02:52:09;97848.22;;;15.28;58.00
56142;BME280;42018;48.588;10.836;2022-07-09T02:54:54;97846.88;;;15.36;57.57
56142;BME280;42018;48.588;10.836;2022-07-09T02:57:39;97855.41;;;15.22;57.78
56142;BME280;42018;48.588;10.836;2022-07-09T03:00:25;97858.91;;;15.13;58.39
56142;BME280;42018;48.588;10.836;2022-07-09T03:03:10;97857.03;;;15.03;58.96
56142;BME280;42018;48.588;10.836;2022-07-09T03:05:56;97855.66;;;14.90;59.27
56142;BME280;42018;48.588;10.836;2022-07-09T03:08:41;97859.69;;;15.03;58.74
56142;BME280;42018;48.588;10.836;2022-07-09T03:11:26;97861.25;;;14.63;61.06
56142;BME280;42018;48.588;10.836;2022-07-09T03:14:12;97859.66;;;14.82;60.19
56142;BME280;42018;48.588;10.836;2022-07-09T03:16:57;97858.06;;;14.97;59.93
56142;BME280;42018;48.588;10.836;2022-07-09T03:19:42;97851.69;;;14.98;60.05
56142;BME280;42018;48.588;10.836;2022-07-09T03:22:28;97851.41;;;15.04;60.23
56142;BME280;42018;48.588;10.836;2022-07-09T03:25:13;97854.88;;;14.84;61.53
56142;BME280;42018;48.588;10.836;2022-07-09T03:27:58;97859.44;;;14.94;60.65
56142;BME280;42018;48.588;10.836;2022-07-09T03:30:44;97856.22;;;14.92;60.52
56142;BME280;42018;48.588;10.836;2022-07-09T03:33:29;97861.28;;;14.99;60.03
56142;BME280;42018;48.588;10.836;2022-07-09T03:36:15;97854.91;;;15.05;60.29
56142;BME280;42018;48.588;10.836;2022-07-09T03:39:00;97866.09;;;14.97;61.04
56142;BME280;42018;48.588;10.836;2022-07-09T03:41:45;97867.16;;;14.80;61.96
56142;BME280;42018;48.588;10.836;2022-07-09T03:44:31;97859.34;;;14.53;63.17
56142;BME280;42018;48.588;10.836;2022-07-09T03:47:16;97862.31;;;14.72;62.26
56142;BME280;42018;48.588;10.836;2022-07-09T03:50:02;97856.97;;;14.72;62.55
56142;BME280;42018;48.588;10.836;2022-07-09T03:52:48;97856.44;;;14.65;63.48
56142;BME280;42018;48.588;10.836;2022-07-09T03:55:33;97851.63;;;14.52;64.26
56142;BME280;42018;48.588;10.836;2022-07-09T03:58:18;97856.44;;;14.75;63.63
56142;BME280;42018;48.588;10.836;2022-07-09T04:01:04;97859.41;;;14.84;63.45
56142;BME280;42018;48.588;10.836;2022-07-09T04:03:49;97858.59;;;14.89;63.06
56142;BME280;42018;48.588;10.836;2022-07-09T04:06:35;97863.41;;;14.97;63.08
56142;BME280;42018;48.588;10.836;2022-07-09T04:09:21;97855.16;;;14.98;62.38
56142;BME280;42018;48.588;10.836;2022-07-09T04:12:06;97859.97;;;15.01;62.67
56142;BME280;42018;48.588;10.836;2022-07-09T04:14:52;97866.63;;;15.09;62.36
56142;BME280;42018;48.588;10.836;2022-07-09T04:17:37;97864.22;;;15.02;62.84
56142;BME280;42018;48.588;10.836;2022-07-09T04:20:23;97864.97;;;14.67;64.53
56142;BME280;42018;48.588;10.836;2022-07-09T04:23:10;97866.03;;;14.71;64.55
56142;BME280;42018;48.588;10.836;2022-07-09T04:25:55;97864.44;;;14.75;63.98
56142;BME280;42018;48.588;10.836;2022-07-09T04:28:41;97865.53;;;14.84;63.38
56142;BME280;42018;48.588;10.836;2022-07-09T04:31:26;97866.56;;;14.68;64.25
56142;BME280;42018;48.588;10.836;2022-07-09T04:34:14;97871.41;;;14.76;64.26
56142;BME280;42018;48.588;10.836;2022-07-09T04:36:59;97866.06;;;14.87;64.21
56142;BME280;42018;48.588;10.836;2022-07-09T04:40:16;97875.91;;;14.76;63.96
56142;BME280;42018;48.588;10.836;2022-07-09T04:43:01;97876.50;;;15.03;63.39
56142;BME280;42018;48.588;10.836;2022-07-09T04:45:47;97871.97;;;14.83;64.39
56142;BME280;42018;48.588;10.836;2022-07-09T04:48:34;97872.25;;;15.02;63.25
56142;BME280;42018;48.588;10.836;2022-07-09T04:51:22;97871.97;;;15.19;62.08
56142;BME280;42018;48.588;10.836;2022-07-09T04:54:15;97876.22;;;15.36;61.49
56142;BME280;42018;48.588;10.836;2022-07-09T04:57:00;97884.78;;;15.48;61.09
56142;BME280;42018;48.588;10.836;2022-07-09T04:59:46;97882.63;;;15.40;61.36
56142;BME280;42018;48.588;10.836;2022-07-09T05:02:31;97883.44;;;15.45;60.97
56142;BME280;42018;48.588;10.836;2022-07-09T05:05:17;97882.09;;;15.58;60.94
56142;BME280;42018;48.588;10.836;2022-07-09T05:08:03;97890.91;;;15.53;61.26
56142;BME280;42018;48.588;10.836;2022-07-09T05:10:49;97888.53;;;15.52;61.59
56142;BME280;42018;48.588;10.836;2022-07-09T05:13:34;97889.31;;;15.47;62.35
56142;BME280;42018;48.588;10.836;2022-07-09T05:16:22;97889.84;;;15.49;62.10
56142;BME280;42018;48.588;10.836;2022-07-09T05:19:10;97885.31;;;15.45;62.02
56142;BME280;42018;48.588;10.836;2022-07-09T05:22:07;97881.28;;;15.63;61.45
56142;BME280;42018;48.588;10.836;2022-07-09T05:24:53;97886.63;;;15.57;61.65
56142;BME280;42018;48.588;10.836;2022-07-09T05:27:43;97882.38;;;15.46;62.11
56142;BME280;42018;48.588;10.836;2022-07-09T05:30:42;97884.78;;;15.07;62.51
56142;BME280;42018;48.588;10.836;2022-07-09T05:33:27;97882.88;;;15.64;61.57
56142;BME280;42018;48.588;10.836;2022-07-09T05:36:21;97882.09;;;15.84;61.52
56142;BME280;42018;48.588;10.836;2022-07-09T05:39:07;97886.09;;;15.61;61.80
56142;BME280;42018;48.588;10.836;2022-07-09T05:41:52;97883.69;;;15.85;61.85
56142;BME280;42018;48.588;10.836;2022-07-09T05:44:38;97882.34;;;15.87;62.33
56142;BME280;42018;48.588;10.836;2022-07-09T05:47:23;97880.22;;;15.74;61.90
56142;BME280;42018;48.588;10.836;2022-07-09T05:50:09;97877.00;;;15.87;62.64
56142;BME280;42018;48.588;10.836;2022-07-09T05:52:54;97878.38;;;15.69;62.60
56142;BME280;42018;48.588;10.836;2022-07-09T05:55:39;97872.78;;;15.66;62.94
56142;BME280;42018;48.588;10.836;2022-07-09T05:58:34;97880.25;;;15.69;62.72
56142;BME280;42018;48.588;10.836;2022-07-09T06:01:20;97878.53;;;16.09;61.18
56142;BME280;42018;48.588;10.836;2022-07-09T06:04:06;97871.44;;;16.43;60.24
56142;BME280;42018;48.588;10.836;2022-07-09T06:06:52;97866.28;;;16.57;59.80
56142;BME280;42018;48.588;10.836;2022-07-09T06:09:37;97880.78;;;16.51;59.86
56142;BME280;42018;48.588;10.836;2022-07-09T06:12:23;97878.00;;;16.77;59.76
56142;BME280;42018;48.588;10.836;2022-07-09T06:15:10;97872.75;;;17.01;58.87
56142;BME280;42018;48.588;10.836;2022-07-09T06:17:56;97869.44;;;16.69;58.86
56142;BME280;42018;48.588;10.836;2022-07-09T06:20:41;97863.03;;;16.65;59.34
56142;BME280;42018;48.588;10.836;2022-07-09T06:23:26;97855.22;;;16.79;59.42
56142;BME280;42018;48.588;10.836;2022-07-09T06:26:12;97861.81;;;16.97;59.28
56142;BME280;42018;48.588;10.836;2022-07-09T06:28:57;97860.28;;;17.20;58.56
56142;BME280;42018;48.588;10.836;2022-07-09T06:31:43;97859.63;;;17.33;56.91
56142;BME280;42018;48.588;10.836;2022-07-09T06:34:28;97863.16;;;17.87;55.99
56142;BME280;42018;48.588;10.836;2022-07-09T06:37:14;97862.09;;;18.31;54.82
56142;BME280;42018;48.588;10.836;2022-07-09T06:39:59;97859.31;;;18.41;54.28
56142;BME280;42018;48.588;10.836;2022-07-09T06:42:44;97853.25;;;18.73;54.01
56142;BME280;42018;48.588;10.836;2022-07-09T06:45:30;97852.84;;;19.18;52.76
56142;BME280;42018;48.588;10.836;2022-07-09T06:48:15;97852.44;;;18.54;52.37
56142;BME280;42018;48.588;10.836;2022-07-09T06:51:00;97858.19;;;18.85;52.53
56142;BME280;42018;48.588;10.836;2022-07-09T06:53:46;97857.03;;;19.24;51.56
56142;BME280;42018;48.588;10.836;2022-07-09T06:56:31;97854.28;;;18.96;52.15
56142;BME280;42018;48.588;10.836;2022-07-09T06:59:17;97844.16;;;18.88;52.20
56142;BME280;42018;48.588;10.836;2022-07-09T07:02:03;97849.75;;;19.10;52.47
56142;BME280;42018;48.588;10.836;2022-07-09T07:04:49;97848.53;;;19.35;51.01
56142;BME280;42018;48.588;10.836;2022-07-09T07:07:34;97848.50;;;19.03;51.95
56142;BME280;42018;48.588;10.836;2022-07-09T07:10:20;97838.59;;;19.03;52.49
56142;BME280;42018;48.588;10.836;2022-07-09T07:13:05;97841.97;;;19.09;53.18
56142;BME280;42018;48.588;10.836;2022-07-09T07:15:51;97844.13;;;19.26;52.57
56142;BME280;42018;48.588;10.836;2022-07-09T07:18:36;97856.66;;;19.30;52.25
56142;BME280;42018;48.588;10.836;2022-07-09T07:21:21;97859.47;;;19.72;51.77
56142;BME280;42018;48.588;10.836;2022-07-09T07:24:07;97847.84;;;20.18;50.21
56142;BME280;42018;48.588;10.836;2022-07-09T07:26:53;97843.22;;;20.46;49.65
56142;BME280;42018;48.588;10.836;2022-07-09T07:29:38;97841.25;;;20.74;49.46
56142;BME280;42018;48.588;10.836;2022-07-09T07:32:27;97843.63;;;20.89;49.59
56142;BME280;42018;48.588;10.836;2022-07-09T07:35:13;97839.53;;;21.14;48.81
56142;BME280;42018;48.588;10.836;2022-07-09T07:37:58;97838.16;;;21.25;47.82
56142;BME280;42018;48.588;10.836;2022-07-09T07:40:49;97837.16;;;21.35;47.79
56142;BME280;42018;48.588;10.836;2022-07-09T07:43:35;97831.81;;;21.44;47.97
56142;BME280;42018;48.588;10.836;2022-07-09T07:46:20;97828.13;;;21.40;47.51
56142;BME280;42018;48.588;10.836;2022-07-09T07:49:05;97838.47;;;21.78;46.68
56142;BME280;42018;48.588;10.836;2022-07-09T07:51:51;97837.16;;;22.06;46.36
56142;BME280;42018;48.588;10.836;2022-07-09T07:54:36;97834.59;;;22.01;45.88
56142;BME280;42018;48.588;10.836;2022-07-09T07:57:22;97835.97;;;21.27;47.30
56142;BME280;42018;48.588;10.836;2022-07-09T08:00:11;97837.72;;;21.94;47.79
56142;BME280;42018;48.588;10.836;2022-07-09T08:02:56;97835.03;;;22.34;46.17
56142;BME280;42018;48.588;10.836;2022-07-09T08:05:42;97828.66;;;22.30;45.09
56142;BME280;42018;48.588;10.836;2022-07-09T08:08:32;97825.84;;;22.61;45.75
56142;BME280;42018;48.588;10.836;2022-07-09T08:11:18;97826.16;;;23.12;45.09
56142;BME280;42018;48.588;10.836;2022-07-09T08:14:05;97822.16;;;23.35;43.66
56142;BME280;42018;48.588;10.836;2022-07-09T08:16:52;97819.78;;;23.25;43.11
56142;BME280;42018;48.588;10.836;2022-07-09T08:19:39;97815.38;;;22.94;44.95
56142;BME280;42018;48.588;10.836;2022-07-09T08:22:25;97818.69;;;22.91;44.33
56142;BME280;42018;48.588;10.836;2022-07-09T08:25:10;97819.69;;;22.96;45.17
56142;BME280;42018;48.588;10.836;2022-07-09T08:27:56;97821.41;;;23.09;42.64
56142;BME280;42018;48.588;10.836;2022-07-09T08:30:41;97818.72;;;23.09;43.54
56142;BME280;42018;48.588;10.836;2022-07-09T08:33:29;97817.25;;;22.85;44.36
56142;BME280;42018;48.588;10.836;2022-07-09T08:36:14;97826.94;;;22.69;45.42
56142;BME280;42018;48.588;10.836;2022-07-09T08:39:00;97815.97;;;22.83;45.04
56142;BME280;42018;48.588;10.836;2022-07-09T08:41:45;97821.09;;;23.10;44.69
56142;BME280;42018;48.588;10.836;2022-07-09T08:44:33;97816.75;;;23.35;43.07
56142;BME280;42018;48.588;10.836;2022-07-09T08:47:21;97806.78;;;23.74;43.14
56142;BME280;42018;48.588;10.836;2022-07-09T08:50:07;97803.47;;;23.60;42.77
56142;BME280;42018;48.588;10.836;2022-07-09T08:52:54;97807.81;;;24.20;42.14
56142;BME280;42018;48.588;10.836;2022-07-09T08:55:39;97801.31;;;24.42;41.83
56142;BME280;42018;48.588;10.836;2022-07-09T08:58:26;97791.19;;;24.01;41.05
56142;BME280;42018;48.588;10.836;2022-07-09T09:01:16;97801.31;;;23.83;40.98
56142;BME280;42018;48.588;10.836;2022-07-09T09:04:04;97794.81;;;23.75;41.60
56142;BME280;42018;48.588;10.836;2022-07-09T09:06:50;97793.31;;;23.48;42.16
56142;BME280;42018;48.588;10.836;2022-07-09T09:09:36;97795.97;;;23.01;42.84
56142;BME280;42018;48.588;10.836;2022-07-09T09:12:27;97787.00;;;23.35;42.24
56142;BME280;42018;48.588;10.836;2022-07-09T09:15:17;97787.09;;;23.48;41.73
56142;BME280;42018;48.588;10.836;2022-07-09T09:18:02;97783.59;;;23.56;41.86
56142;BME280;42018;48.588;10.836;2022-07-09T09:20:48;97774.38;;;23.86;40.46
56142;BME280;42018;48.588;10.836;2022-07-09T09:23:45;97779.16;;;24.19;40.03
56142;BME280;42018;48.588;10.836;2022-07-09T09:26:30;97770.88;;;24.45;40.26
56142;BME280;42018;48.588;10.836;2022-07-09T09:29:18;97768.19;;;24.36;38.74
56142;BME280;42018;48.588;10.836;2022-07-09T09:32:10;97760.47;;;23.97;39.60
56142;BME280;42018;48.588;10.836;2022-07-09T09:35:02;97754.03;;;24.10;38.96
56142;BME280;42018;48.588;10.836;2022-07-09T09:37:48;97760.56;;;23.79;39.72
56142;BME280;42018;48.588;10.836;2022-07-09T09:40:35;97759.50;;;24.01;38.44
56142;BME280;42018;48.588;10.836;2022-07-09T09:43:21;97752.72;;;23.86;40.59
56142;BME280;42018;48.588;10.836;2022-07-09T09:46:09;97750.91;;;24.83;39.38
56142;BME280;42018;48.588;10.836;2022-07-09T09:48:58;97750.16;;;25.28;39.07
56142;BME280;42018;48.588;10.836;2022-07-09T09:54:40;97737.88;;;24.43;38.58
56142;BME280;42018;48.588;10.836;2022-07-09T09:57:27;97739.78;;;24.97;39.18
56142;BME280;42018;48.588;10.836;2022-07-09T10:00:14;97732.13;;;24.99;38.57
56142;BME280;42018;48.588;10.836;2022-07-09T10:03:01;97738.13;;;24.08;39.21
56142;BME280;42018;48.588;10.836;2022-07-09T10:05:46;97734.06;;;24.44;37.83
56142;BME280;42018;48.588;10.836;2022-07-09T10:08:32;97729.47;;;24.15;38.45
56142;BME280;42018;48.588;10.836;2022-07-09T10:11:19;97727.44;;;24.12;38.93
56142;BME280;42018;48.588;10.836;2022-07-09T10:14:15;97724.19;;;24.19;37.52
56142;BME280;42018;48.588;10.836;2022-07-09T10:20:06;97717.88;;;25.84;36.25
56142;BME280;42018;48.588;10.836;2022-07-09T10:22:59;97723.66;;;25.95;35.85
56142;BME280;42018;48.588;10.836;2022-07-09T10:25:45;97717.22;;;26.40;34.78
56142;BME280;42018;48.588;10.836;2022-07-09T10:28:40;97719.00;;;26.48;34.54
56142;BME280;42018;48.588;10.836;2022-07-09T10:31:26;97707.91;;;26.41;32.94
56142;BME280;42018;48.588;10.836;2022-07-09T10:37:43;97710.19;;;24.92;33.92
56142;BME280;42018;48.588;10.836;2022-07-09T10:40:38;97705.31;;;25.67;34.89
56142;BME280;42018;48.588;10.836;2022-07-09T10:46:26;97704.31;;;26.24;33.25
56142;BME280;42018;48.588;10.836;2022-07-09T10:49:12;97705.31;;;26.32;34.17
56142;BME280;42018;48.588;10.836;2022-07-09T10:51:58;97709.59;;;25.31;33.00
56142;BME280;42018;48.588;10.836;2022-07-09T10:54:47;97714.41;;;24.68;33.74
56142;BME280;42018;48.588;10.836;2022-07-09T10:57:34;97708.44;;;24.75;33.79
56142;BME280;42018;48.588;10.836;2022-07-09T11:00:22;97722.00;;;24.54;34.12
56142;BME280;42018;48.588;10.836;2022-07-09T11:03:08;97712.66;;;24.84;34.14
56142;BME280;42018;48.588;10.836;2022-07-09T11:05:57;97711.16;;;25.20;34.40
56142;BME280;42018;48.588;10.836;2022-07-09T11:08:43;97708.72;;;24.94;34.42
56142;BME280;42018;48.588;10.836;2022-07-09T11:11:28;97700.53;;;24.70;33.90
56142;BME280;42018;48.588;10.836;2022-07-09T11:14:14;97700.22;;;24.83;33.89
56142;BME280;42018;48.588;10.836;2022-07-09T11:16:59;97707.69;;;25.20;33.90
56142;BME280;42018;48.588;10.836;2022-07-09T11:19:46;97689.03;;;25.43;33.52
56142;BME280;42018;48.588;10.836;2022-07-09T11:22:31;97698.63;;;25.65;33.50
56142;BME280;42018;48.588;10.836;2022-07-09T11:25:17;97694.72;;;24.92;34.63
56142;BME280;42018;48.588;10.836;2022-07-09T11:28:03;97689.59;;;25.24;35.71
56142;BME280;42018;48.588;10.836;2022-07-09T11:30:59;97690.75;;;25.47;35.80
56142;BME280;42018;48.588;10.836;2022-07-09T11:33:45;97687.91;;;25.44;36.24
56142;BME280;42018;48.588;10.836;2022-07-09T11:36:54;97698.31;;;25.29;36.11
56142;BME280;42018;48.588;10.836;2022-07-09T11:39:39;97692.84;;;25.17;35.27
56142;BME280;42018;48.588;10.836;2022-07-09T11:42:25;97690.25;;;25.21;35.95
56142;BME280;42018;48.588;10.836;2022-07-09T11:45:11;97696.38;;;24.84;35.98
56142;BME280;42018;48.588;10.836;2022-07-09T11:48:07;97696.88;;;24.99;36.86
56142;BME280;42018;48.588;10.836;2022-07-09T11:50:57;97686.69;;;25.08;35.39
56142;BME280;42018;48.588;10.836;2022-07-09T11:53:50;97679.91;;;24.90;35.29
56142;BME280;42018;48.588;10.836;2022-07-09T11:56:40;97673.88;;;25.42;35.79
56142;BME280;42018;48.588;10.836;2022-07-09T11:59:26;97678.56;;;24.96;34.97
56142;BME280;42018;48.588;10.836;2022-07-09T12:05:30;97655.81;;;25.34;35.52
56142;BME280;42018;48.588;10.836;2022-07-09T12:08:26;97667.53;;;25.25;35.71
56142;BME280;42018;48.588;10.836;2022-07-09T12:11:12;97661.69;;;25.23;35.03
56142;BME280;42018;48.588;10.836;2022-07-09T12:13:57;97653.50;;;25.72;34.26
56142;BME280;42018;48.588;10.836;2022-07-09T12:16:42;97647.25;;;25.96;32.62
56142;BME280;42018;48.588;10.836;2022-07-09T12:19:28;97647.19;;;25.81;33.33
56142;BME280;42018;48.588;10.836;2022-07-09T12:22:13;97643.44;;;25.85;33.77
56142;BME280;42018;48.588;10.836;2022-07-09T12:24:59;97645.16;;;26.46;33.58
56142;BME280;42018;48.588;10.836;2022-07-09T12:27:45;97639.09;;;25.96;32.49
56142;BME280;42018;48.588;10.836;2022-07-09T12:30:31;97630.69;;;25.49;33.96
56142;BME280;42018;48.588;10.836;2022-07-09T12:33:16;97627.97;;;26.14;34.51
56142;BME280;42018;48.588;10.836;2022-07-09T12:36:01;97636.38;;;25.96;34.01
56142;BME280;42018;48.588;10.836;2022-07-09T12:38:47;97628.13;;;26.05;33.96
56142;BME280;42018;48.588;10.836;2022-07-09T12:41:33;97623.91;;;26.08;33.39
56142;BME280;42018;48.588;10.836;2022-07-09T12:44:18;97620.75;;;26.34;33.99
56142;BME280;42018;48.588;10.836;2022-07-09T12:47:04;97620.41;;;26.07;33.56
56142;BME280;42018;48.588;10.836;2022-07-09T12:49:49;97620.06;;;26.37;33.75
56142;BME280;42018;48.588;10.836;2022-07-09T12:52:35;97617.59;;;26.32;33.17
56142;BME280;42018;48.588;10.836;2022-07-09T12:55:23;97614.69;;;26.24;33.94
56142;BME280;42018;48.588;10.836;2022-07-09T12:58:08;97610.16;;;25.88;33.43
56142;BME280;42018;48.588;10.836;2022-07-09T13:00:54;97605.06;;;25.99;33.47
56142;BME280;42018;48.588;10.836;2022-07-09T13:03:39;97604.00;;;25.63;33.62
56142;BME280;42018;48.588;10.836;2022-07-09T13:06:25;97601.38;;;25.79;33.62
56142;BME280;42018;48.588;10.836;2022-07-09T13:09:16;97604.44;;;25.65;33.78
56142;BME280;42018;48.588;10.836;2022-07-09T13:12:02;97598.44;;;25.60;33.88
56142;BME280;42018;48.588;10.836;2022-07-09T13:14:47;97596.03;;;25.83;33.74
56142;BME280;42018;48.588;10.836;2022-07-09T13:17:32;97597.94;;;26.22;34.25
56142;BME280;42018;48.588;10.836;2022-07-09T13:20:18;97585.25;;;26.26;33.69
56142;BME280;42018;48.588;10.836;2022-07-09T13:23:03;97587.34;;;26.93;32.53
56142;BME280;42018;48.588;10.836;2022-07-09T13:25:49;97590.69;;;26.42;31.90
56142;BME280;42018;48.588;10.836;2022-07-09T13:28:34;97581.72;;;27.17;32.29
56142;BME280;42018;48.588;10.836;2022-07-09T13:31:20;97580.88;;;26.38;31.54
56142;BME280;42018;48.588;10.836;2022-07-09T13:34:06;97574.50;;;26.46;33.20
56142;BME280;42018;48.588;10.836;2022-07-09T13:36:52;97579.03;;;26.26;32.77
56142;BME280;42018;48.588;10.836;2022-07-09T13:39:37;97575.34;;;26.34;33.18
56142;BME280;42018;48.588;10.836;2022-07-09T13:42:23;97570.41;;;26.08;33.19
56142;BME280;42018;48.588;10.836;2022-07-09T13:45:08;97569.59;;;25.67;33.52
56142;BME280;42018;48.588;10.836;2022-07-09T13:47:54;97569.28;;;25.69;33.78
56142;BME280;42018;48.588;10.836;2022-07-09T13:50:40;97578.63;;;25.84;34.03
56142;BME280;42018;48.588;10.836;2022-07-09T13:53:25;97579.25;;;25.93;33.91
56142;BME280;42018;48.588;10.836;2022-07-09T13:56:13;97575.31;;;25.38;34.63
56142;BME280;42018;48.588;10.836;2022-07-09T13:58:59;97568.97;;;25.46;34.29
56142;BME280;42018;48.588;10.836;2022-07-09T14:01:44;97577.69;;;25.51;34.32
56142;BME280;42018;48.588;10.836;2022-07-09T14:04:29;97561.94;;;25.57;34.29
56142;BME280;42018;48.588;10.836;2022-07-09T14:07:16;97567.72;;;25.43;34.23
56142;BME280;42018;48.588;10.836;2022-07-09T14:10:01;97560.50;;;25.75;34.12
56142;BME280;42018;48.588;10.836;2022-07-09T14:12:47;97559.84;;;25.91;34.34
56142;BME280;42018;48.588;10.836;2022-07-09T14:15:33;97556.06;;;25.95;34.77
56142;BME280;42018;48.588;10.836;2022-07-09T14:18:19;97546.84;;;25.84;34.35
56142;BME280;42018;48.588;10.836;2022-07-09T14:21:04;97547.88;;;25.79;34.34
56142;BME280;42018;48.588;10.836;2022-07-09T14:23:49;97542.56;;;25.71;33.99
56142;BME280;42018;48.588;10.836;2022-07-09T14:26:35;97544.81;;;26.09;34.39
56142;BME280;42018;48.588;10.836;2022-07-09T14:29:20;97532.34;;;26.36;34.69
56142;BME280;42018;48.588;10.836;2022-07-09T14:32:06;97524.53;;;26.82;33.34
56142;BME280;42018;48.588;10.836;2022-07-09T14:34:53;97522.03;;;27.25;33.64
56142;BME280;42018;48.588;10.836;2022-07-09T14:37:38;97520.03;;;27.06;32.52
56142;BME280;42018;48.588;10.836;2022-07-09T14:40:24;97525.84;;;27.20;31.83
56142;BME280;42018;48.588;10.836;2022-07-09T14:43:09;97528.84;;;26.83;33.13
56142;BME280;42018;48.588;10.836;2022-07-09T14:45:54;97525.88;;;26.57;32.34